createdAt,value
2023-03-27T00:01:13.005Z,1.20
2023-03-27T00:03:41.030Z,143.93
2023-03-27T00:06:11.267Z,19.87
2023-03-27T00:08:38.786Z,281.30
2023-03-27T00:11:07.984Z,299.73
2023-03-27T00:13:35.455Z,19.73
2023-03-27T00:16:05.225Z,244.30
2023-03-27T00:18:33.654Z,210.43
2023-03-27T00:21:03.014Z,28.77
2023-03-27T00:23:30.649Z,18.33
2023-03-27T00:25:58.693Z,242.57
2023-03-27T00:28:27.156Z,255.23
2023-03-27T00:30:55.830Z,25.03
2023-03-27T00:33:25.338Z,19.87
2023-03-27T00:35:53.060Z,124.87
2023-03-27T00:38:20.887Z,118.03
2023-03-27T00:40:49.221Z,74.50
2023-03-27T00:43:20.563Z,139.97
2023-03-27T00:45:48.563Z,1.63
2023-03-27T00:48:16.985Z,123.07
2023-03-27T00:50:46.675Z,99.33
2023-03-27T00:53:16.509Z,215.17
2023-03-27T00:55:46.027Z,390.50
2023-03-27T00:58:15.544Z,138.00
2023-03-27T01:00:42.918Z,23.57
2023-03-27T01:03:10.687Z,310.10
2023-03-27T01:05:38.132Z,386.67
2023-03-27T01:08:07.256Z,317.20
2023-03-27T01:10:39.016Z,233.37
2023-03-27T01:13:12.026Z,0.97
2023-03-27T01:15:42.374Z,245.87
2023-03-27T01:18:16.068Z,271.83
2023-03-27T01:21:02.288Z,122.60
2023-03-27T01:23:59.989Z,0.67
2023-03-27T01:26:57.891Z,1.30
2023-03-27T01:29:30.404Z,15.03
2023-03-27T01:32:07.452Z,1.20
2023-03-27T01:34:46.377Z,1.40
2023-03-27T01:37:29.153Z,1.27
2023-03-27T01:40:00.920Z,1.10
2023-03-27T01:42:32.640Z,1.03
2023-03-27T01:45:05.350Z,1.20
2023-03-27T01:47:37.626Z,301.60
2023-03-27T01:50:09.391Z,0.80
2023-03-27T01:52:38.963Z,1.73
2023-03-27T01:55:09.804Z,1.10
2023-03-27T01:57:48.919Z,1.43
2023-03-27T02:00:21.743Z,0.90
2023-03-27T02:02:52.068Z,0.87
2023-03-27T02:05:21.483Z,1.10
2023-03-27T02:07:52.347Z,0.90
2023-03-27T02:10:23.980Z,1.00
2023-03-27T02:12:54.937Z,0.90
2023-03-27T02:15:25.247Z,0.90
2023-03-27T02:17:56.839Z,1.23
2023-03-27T02:20:24.685Z,1.27
2023-03-27T02:22:53.565Z,0.93
2023-03-27T02:25:29.014Z,0.90
2023-03-27T02:28:02.909Z,0.93
2023-03-27T02:30:34.907Z,0.83
2023-03-27T02:33:08.929Z,1.13
2023-03-27T02:35:41.979Z,1.00
2023-03-27T02:38:12.281Z,0.70
2023-03-27T02:40:47.031Z,1.10
2023-03-27T02:43:17.292Z,0.90
2023-03-27T02:45:47.994Z,0.70
2023-03-27T02:48:18.350Z,0.70
2023-03-27T02:50:49.101Z,0.87
2023-03-27T02:53:19.066Z,1.13
2023-03-27T02:55:50.522Z,0.77
2023-03-27T02:58:20.873Z,0.80
2023-03-27T03:00:50.293Z,0.90
2023-03-27T03:03:21.072Z,1.03
2023-03-27T03:05:50.598Z,0.87
2023-03-27T03:08:21.680Z,1.20
2023-03-27T03:10:50.573Z,0.70
2023-03-27T03:13:18.512Z,2.00
2023-03-27T03:15:48.407Z,0.83
2023-03-27T03:18:18.336Z,0.90
2023-03-27T03:20:46.297Z,0.60
2023-03-27T03:23:13.652Z,1.03
2023-03-27T03:25:41.422Z,1.10
2023-03-27T03:28:10.547Z,0.70
2023-03-27T03:30:42.091Z,0.63
2023-03-27T03:33:10.031Z,0.90
2023-03-27T03:35:37.419Z,0.80
2023-03-27T03:38:06.422Z,1.17
2023-03-27T03:40:33.807Z,0.80
2023-03-27T03:43:01.171Z,0.80
2023-03-27T03:45:30.058Z,1.07
2023-03-27T03:47:57.478Z,0.80
2023-03-27T03:50:24.914Z,0.70
2023-03-27T03:52:52.265Z,0.80
2023-03-27T03:55:19.978Z,0.90
2023-03-27T03:57:48.391Z,1.10
2023-03-27T04:00:16.889Z,0.90
2023-03-27T04:02:45.956Z,0.90
2023-03-27T04:05:13.401Z,1.00
2023-03-27T04:07:41.124Z,0.70
2023-03-27T04:10:09.616Z,1.10
2023-03-27T04:12:36.996Z,0.93
2023-03-27T04:15:04.506Z,1.00
2023-03-27T04:17:33.558Z,0.83
2023-03-27T04:20:05.196Z,0.93
2023-03-27T04:22:37.841Z,0.90
2023-03-27T04:25:05.788Z,0.93
2023-03-27T04:27:33.209Z,1.10
2023-03-27T04:30:02.304Z,0.80
2023-03-27T04:32:30.137Z,0.90
2023-03-27T04:34:57.572Z,0.80
2023-03-27T04:37:26.419Z,0.67
2023-03-27T04:39:53.809Z,1.30
2023-03-27T04:42:23.504Z,1.00
2023-03-27T04:44:52.481Z,1.17
2023-03-27T04:47:20.358Z,1.20
2023-03-27T04:49:50.753Z,1.23
2023-03-27T04:52:18.325Z,1.07
2023-03-27T04:54:47.294Z,1.30
2023-03-27T04:57:16.960Z,1.10
2023-03-27T04:59:44.386Z,0.90
2023-03-27T05:02:12.921Z,1.20
2023-03-27T05:04:40.275Z,0.90
2023-03-27T05:07:07.640Z,1.10
2023-03-27T05:09:35.022Z,1.00
2023-03-27T05:12:03.838Z,1.10
2023-03-27T05:14:32.300Z,1.10
2023-03-27T05:17:00.786Z,1.00
2023-03-27T05:19:28.219Z,0.90
2023-03-27T05:21:55.561Z,1.10
2023-03-27T05:24:22.929Z,1.13
2023-03-27T05:26:50.274Z,1.00
2023-03-27T05:29:19.042Z,1.17
2023-03-27T05:31:46.400Z,1.20
2023-03-27T05:34:13.762Z,1.00
2023-03-27T05:36:41.327Z,1.13
2023-03-27T05:39:08.685Z,1.13
2023-03-27T05:41:36.241Z,0.97
2023-03-27T05:44:03.656Z,1.63
2023-03-27T05:46:32.396Z,0.90
2023-03-27T05:49:00.320Z,1.20
2023-03-27T05:51:29.206Z,1.30
2023-03-27T05:53:56.763Z,1.10
2023-03-27T05:56:24.145Z,1.50
2023-03-27T05:58:52.012Z,1.30
2023-03-27T06:01:20.847Z,1.27
2023-03-27T06:03:50.185Z,1.43
2023-03-27T06:06:17.974Z,1.00
2023-03-27T06:08:46.167Z,1.30
2023-03-27T06:11:14.870Z,1.70
2023-03-27T06:13:42.644Z,1.23
2023-03-27T06:16:10.448Z,1.30
2023-03-27T06:18:38.123Z,1.60
2023-03-27T06:21:07.313Z,1.77
2023-03-27T06:23:35.817Z,1.93
2023-03-27T06:26:03.518Z,1.70
2023-03-27T06:28:30.917Z,1.70
2023-03-27T06:30:59.805Z,1.50
2023-03-27T06:33:28.075Z,1.50
2023-03-27T06:36:00.616Z,1.70
2023-03-27T06:38:31.188Z,2.00
2023-03-27T06:40:59.706Z,1.77
2023-03-27T06:43:27.319Z,1.20
2023-03-27T06:45:55.085Z,1.50
2023-03-27T06:48:23.886Z,1.43
2023-03-27T06:50:52.312Z,1.50
2023-03-27T06:55:51.617Z,1.77
2023-03-27T06:58:19.759Z,1.33
2023-03-27T07:00:48.867Z,1.50
2023-03-27T07:03:16.700Z,1.60
2023-03-27T07:05:44.272Z,1.30
2023-03-27T07:08:22.544Z,1.37
2023-03-27T07:13:23.772Z,1.30
2023-03-27T07:15:51.668Z,1.20
2023-03-27T07:18:19.150Z,1.43
2023-03-27T07:20:48.069Z,1.47
2023-03-27T07:23:15.510Z,1.90
2023-03-27T07:25:43.123Z,1.60
2023-03-27T07:28:13.956Z,1.73
2023-03-27T07:30:41.514Z,1.57
2023-03-27T07:33:09.559Z,1.60
2023-03-27T07:35:41.700Z,1.50
2023-03-27T07:38:09.702Z,1.40
2023-03-27T07:40:40.467Z,1.53
2023-03-27T07:43:09.071Z,1.33
2023-03-27T07:45:38.268Z,1.67
2023-03-27T07:48:06.880Z,1.80
2023-03-27T07:50:34.544Z,1.40
2023-03-27T07:53:02.296Z,1.60
2023-03-27T07:55:30.504Z,1.40
2023-03-27T07:58:02.328Z,1.50
2023-03-27T08:00:31.368Z,1.60
2023-03-27T08:03:07.503Z,1.90
2023-03-27T08:05:35.230Z,1.70
2023-03-27T08:08:02.590Z,1.40
2023-03-27T08:10:30.186Z,1.70
2023-03-27T08:12:57.718Z,1.30
2023-03-27T08:15:26.140Z,1.50
2023-03-27T08:17:55.122Z,1.40
2023-03-27T08:20:24.913Z,1.77
2023-03-27T08:22:52.729Z,1.90
2023-03-27T08:25:22.380Z,1.50
2023-03-27T08:27:50.616Z,1.40
2023-03-27T08:30:19.092Z,1.53
2023-03-27T08:32:46.717Z,1.60
2023-03-27T08:35:14.488Z,1.40
2023-03-27T08:37:43.946Z,1.80
2023-03-27T08:40:17.767Z,1.83
2023-03-27T08:42:46.190Z,1.67
2023-03-27T08:45:17.937Z,1.80
2023-03-27T08:47:48.123Z,1.77
2023-03-27T08:50:19.166Z,1.83
2023-03-27T08:52:48.124Z,1.53
2023-03-27T08:55:19.187Z,1.70
2023-03-27T08:57:46.833Z,1.73
2023-03-27T09:00:19.517Z,4.23
2023-03-27T09:02:51.456Z,1.80
2023-03-27T09:05:20.619Z,1.23
2023-03-27T09:07:55.531Z,2.10
2023-03-27T09:10:26.186Z,1.73
2023-03-27T09:13:00.227Z,1.50
2023-03-27T09:15:29.556Z,1.70
2023-03-27T09:17:59.793Z,1.60
2023-03-27T09:20:29.634Z,1.30
2023-03-27T09:23:02.994Z,1.87
2023-03-27T09:25:33.588Z,1.63
2023-03-27T09:28:01.706Z,1.67
2023-03-27T09:30:30.020Z,1.73
2023-03-27T09:32:59.204Z,1.80
2023-03-27T09:35:26.651Z,1.40
2023-03-27T09:37:56.620Z,1.50
2023-03-27T09:40:30.306Z,1.53
2023-03-27T09:43:00.688Z,1.73
2023-03-27T09:45:28.238Z,1.20
2023-03-27T09:47:58.482Z,2.00
2023-03-27T09:50:29.457Z,1.57
2023-03-27T09:53:07.592Z,1.70
2023-03-27T09:55:36.867Z,1.53
2023-03-27T09:58:11.095Z,1.60
2023-03-27T10:00:38.583Z,1.70
2023-03-27T10:03:08.070Z,1.50
2023-03-27T10:05:35.991Z,1.80
2023-03-27T10:08:19.655Z,1.40
2023-03-27T10:10:56.510Z,1.23
2023-03-27T10:13:26.120Z,1.37
2023-03-27T10:15:58.741Z,1.40
2023-03-27T10:18:28.140Z,1.70
2023-03-27T10:20:57.523Z,2.37
2023-03-27T10:23:26.751Z,1.40
2023-03-27T10:25:59.676Z,1.80
2023-03-27T10:28:28.801Z,1.53
2023-03-27T10:30:59.970Z,1.43
2023-03-27T10:33:31.076Z,1.90
2023-03-27T10:35:58.840Z,1.37
2023-03-27T10:38:26.435Z,1.50
2023-03-27T10:40:57.164Z,1.30
2023-03-27T10:43:28.606Z,2.13
2023-03-27T10:45:57.298Z,2.60
2023-03-27T10:48:31.617Z,2.00
2023-03-27T10:51:02.943Z,1.50
2023-03-27T10:53:37.313Z,1.70
2023-03-27T10:56:12.325Z,1.63
2023-03-27T10:58:43.256Z,1.40
2023-03-27T11:01:12.760Z,1.33
2023-03-27T11:03:42.219Z,1.17
2023-03-27T11:06:13.165Z,1.33
2023-03-27T11:08:46.721Z,1.10
2023-03-27T11:11:17.586Z,1.20
2023-03-27T11:13:45.861Z,1.10
2023-03-27T11:16:16.321Z,1.27
2023-03-27T11:18:47.134Z,1.00
2023-03-27T11:21:16.416Z,1.07
2023-03-27T11:23:47.416Z,1.13
2023-03-27T11:26:18.186Z,0.73
2023-03-27T11:28:48.797Z,0.90
2023-03-27T11:31:21.276Z,0.70
2023-03-27T11:33:51.327Z,1.20
2023-03-27T11:36:35.574Z,1.17
2023-03-27T11:39:07.648Z,1.00
2023-03-27T11:41:36.470Z,1.00
2023-03-27T11:44:04.419Z,0.97
2023-03-27T11:46:39.428Z,1.00
2023-03-27T11:49:16.737Z,1.10
2023-03-27T11:51:50.743Z,0.80
2023-03-27T11:54:26.963Z,0.93
2023-03-27T11:56:56.467Z,0.87
2023-03-27T11:59:29.977Z,0.53
2023-03-27T12:01:59.233Z,0.50
2023-03-27T12:04:36.615Z,0.60
2023-03-27T12:07:12.087Z,0.60
2023-03-27T12:09:45.553Z,0.73
2023-03-27T12:12:27.393Z,0.70
2023-03-27T12:14:58.994Z,0.53
2023-03-27T12:17:33.757Z,0.70
2023-03-27T12:20:19.001Z,0.60
2023-03-27T12:22:51.765Z,0.57
2023-03-27T12:25:31.974Z,0.53
2023-03-27T12:28:04.798Z,0.80
2023-03-27T12:30:37.178Z,0.57
2023-03-27T12:33:13.847Z,0.97
2023-03-27T12:35:43.820Z,0.60
2023-03-27T12:38:19.096Z,0.50
2023-03-27T12:40:50.619Z,0.80
2023-03-27T12:43:26.715Z,0.70
2023-03-27T12:46:07.603Z,0.70
2023-03-27T12:48:46.603Z,0.63
2023-03-27T12:51:15.575Z,0.60
2023-03-27T12:53:55.429Z,0.70
2023-03-27T12:56:26.842Z,0.60
2023-03-27T12:58:56.719Z,0.53
2023-03-27T13:01:32.211Z,2.50
2023-03-27T13:04:13.198Z,0.77
2023-03-27T13:06:45.158Z,0.70
2023-03-27T13:09:25.717Z,0.80
2023-03-27T13:12:05.851Z,0.90
2023-03-27T13:14:40.498Z,0.90
2023-03-27T13:17:20.962Z,0.80
2023-03-27T13:19:54.182Z,0.73
2023-03-27T13:22:27.795Z,0.90
2023-03-27T13:25:00.891Z,0.67
2023-03-27T13:27:37.159Z,0.60
2023-03-27T13:30:07.459Z,0.50
2023-03-27T13:32:37.144Z,0.47
2023-03-27T13:35:09.805Z,0.50
2023-03-27T13:37:43.691Z,0.63
2023-03-27T13:40:20.514Z,1.23
2023-03-27T13:42:51.534Z,0.70
2023-03-27T13:45:21.782Z,0.70
2023-03-27T13:48:01.840Z,0.80
2023-03-27T13:50:48.465Z,0.70
2023-03-27T13:53:37.418Z,0.50
2023-03-27T13:56:15.456Z,11.40
2023-03-27T13:59:01.740Z,5.87
2023-03-27T14:01:36.025Z,1.00
2023-03-27T14:04:09.432Z,0.97
2023-03-27T14:06:55.744Z,1.03
2023-03-27T14:09:31.752Z,0.90
2023-03-27T14:12:05.606Z,0.90
2023-03-27T14:14:39.459Z,0.80
2023-03-27T14:17:17.087Z,1.10
2023-03-27T14:19:59.466Z,1.00
2023-03-27T14:22:29.178Z,0.90
2023-03-27T14:24:58.713Z,0.67
2023-03-27T14:27:26.398Z,0.80
2023-03-27T14:30:15.891Z,0.97
2023-03-27T14:32:44.701Z,0.80
2023-03-27T14:35:27.735Z,0.70
2023-03-27T14:37:56.669Z,0.60
2023-03-27T14:40:27.269Z,0.53
2023-03-27T14:42:55.938Z,0.47
2023-03-27T14:45:27.381Z,0.80
2023-03-27T14:47:57.296Z,0.40
2023-03-27T14:50:25.561Z,2.13
2023-03-27T14:52:53.719Z,0.70
2023-03-27T14:55:22.518Z,0.40
2023-03-27T14:57:50.409Z,0.50
2023-03-27T15:00:20.713Z,0.50
2023-03-27T15:02:49.465Z,0.60
2023-03-27T15:05:19.126Z,0.60
2023-03-27T15:07:49.033Z,0.57
2023-03-27T15:10:20.757Z,0.70
2023-03-27T15:12:48.267Z,0.67
2023-03-27T15:15:22.719Z,0.60
2023-03-27T15:17:54.689Z,0.50
2023-03-27T15:20:27.534Z,0.50
2023-03-27T15:23:00.912Z,1.50
2023-03-27T15:25:33.003Z,1.00
2023-03-27T15:28:06.260Z,0.80
2023-03-27T15:30:35.844Z,0.90
2023-03-27T15:33:04.461Z,0.70
2023-03-27T15:35:34.623Z,0.70
2023-03-27T15:38:02.424Z,0.47
2023-03-27T15:40:36.620Z,0.70
2023-03-27T15:43:06.587Z,0.67
2023-03-27T15:45:39.835Z,0.70
2023-03-27T15:48:17.181Z,0.60
2023-03-27T15:50:56.017Z,0.70
2023-03-27T15:53:36.796Z,0.80
2023-03-27T15:56:06.788Z,0.60
2023-03-27T15:58:40.744Z,1.00
2023-03-27T16:01:19.086Z,0.50
2023-03-27T16:03:48.418Z,0.60
2023-03-27T16:06:24.138Z,0.67
2023-03-27T16:08:51.648Z,0.50
2023-03-27T16:11:32.982Z,0.97
2023-03-27T16:14:00.525Z,0.60
2023-03-27T16:16:29.007Z,1.10
2023-03-27T16:18:59.141Z,0.90
2023-03-27T16:21:28.020Z,0.73
2023-03-27T16:23:56.266Z,0.80
2023-03-27T16:26:24.693Z,0.60
2023-03-27T16:28:52.286Z,0.67
2023-03-27T16:31:20.239Z,0.53
2023-03-27T16:33:48.165Z,0.70
2023-03-27T16:36:16.580Z,0.80
2023-03-27T16:38:45.400Z,1.00
2023-03-27T16:41:14.278Z,0.93
2023-03-27T16:43:41.708Z,0.73
2023-03-27T16:46:13.356Z,0.60
2023-03-27T16:48:41.088Z,0.90
2023-03-27T16:51:08.579Z,0.93
2023-03-27T16:53:35.987Z,1.50
2023-03-27T16:56:05.070Z,0.80
2023-03-27T16:58:32.770Z,1.07
2023-03-27T17:01:00.176Z,1.20
2023-03-27T17:03:27.594Z,0.97
2023-03-27T17:05:59.763Z,4.00
2023-03-27T17:08:30.113Z,1.67
2023-03-27T17:11:02.022Z,0.90
2023-03-27T17:13:30.777Z,0.80
2023-03-27T17:15:58.332Z,0.70
2023-03-27T17:18:26.040Z,0.80
2023-03-27T17:20:53.433Z,1.00
2023-03-27T17:23:20.888Z,0.90
2023-03-27T17:25:48.358Z,1.00
2023-03-27T17:28:17.316Z,0.90
2023-03-27T17:30:56.735Z,0.67
2023-03-27T17:33:29.106Z,1.10
2023-03-27T17:35:56.921Z,1.00
2023-03-27T17:38:24.857Z,1.13
2023-03-27T17:40:52.396Z,0.77
2023-03-27T17:43:19.840Z,0.90
2023-03-27T17:45:50.048Z,0.87
2023-03-27T17:48:17.488Z,1.80
2023-03-27T17:50:49.837Z,0.83
2023-03-27T17:53:26.606Z,1.40
2023-03-27T17:55:54.240Z,0.67
2023-03-27T17:58:22.004Z,0.90
2023-03-27T18:00:50.969Z,0.90
2023-03-27T18:03:18.459Z,1.33
2023-03-27T18:05:46.956Z,1.47
2023-03-27T18:08:15.655Z,1.40
2023-03-27T18:10:48.555Z,1.97
2023-03-27T18:13:16.381Z,1.13
2023-03-27T18:15:44.117Z,1.13
2023-03-27T18:18:12.968Z,0.70
2023-03-27T18:20:40.878Z,1.13
2023-03-27T18:23:08.319Z,0.77
2023-03-27T18:25:35.855Z,0.70
2023-03-27T18:28:03.226Z,0.70
2023-03-27T18:30:32.372Z,0.80
2023-03-27T18:32:59.992Z,0.90
2023-03-27T18:35:28.830Z,0.87
2023-03-27T18:37:56.680Z,0.73
2023-03-27T18:40:24.341Z,0.70
2023-03-27T18:42:51.911Z,0.87
2023-03-27T18:45:19.518Z,0.87
2023-03-27T18:47:47.058Z,1.10
2023-03-27T18:50:15.544Z,1.70
2023-03-27T18:52:44.652Z,1.23
2023-03-27T18:55:12.978Z,1.23
2023-03-27T18:57:40.404Z,1.00
2023-03-27T19:00:08.984Z,0.90
2023-03-27T19:02:36.899Z,1.47
2023-03-27T19:05:04.821Z,1.10
2023-03-27T19:07:32.306Z,1.27
2023-03-27T19:10:01.156Z,1.17
2023-03-27T19:12:28.697Z,0.90
2023-03-27T19:14:56.157Z,1.30
2023-03-27T19:17:24.098Z,1.27
2023-03-27T19:19:51.498Z,1.20
2023-03-27T19:22:18.916Z,1.20
2023-03-27T19:24:46.299Z,1.10
2023-03-27T19:27:24.031Z,1.10
2023-03-27T19:29:52.019Z,1.70
2023-03-27T19:32:19.450Z,1.50
2023-03-27T19:34:47.296Z,1.70
2023-03-27T19:37:14.684Z,2.10
2023-03-27T19:39:42.100Z,1.97
2023-03-27T19:42:09.512Z,1.57
2023-03-27T19:44:38.944Z,1.60
2023-03-27T19:47:07.520Z,2.00
2023-03-27T19:49:35.162Z,1.70
2023-03-27T19:52:02.550Z,1.30
2023-03-27T19:54:31.223Z,1.63
2023-03-27T19:56:58.915Z,1.30
2023-03-27T19:59:30.722Z,1.50
2023-03-27T20:01:59.779Z,2.80
2023-03-27T20:04:27.263Z,1.70
2023-03-27T20:06:55.107Z,1.57
2023-03-27T20:09:22.512Z,1.60
2023-03-27T20:11:49.993Z,1.60
2023-03-27T20:14:17.384Z,1.80
2023-03-27T20:16:44.742Z,1.20
2023-03-27T20:19:14.255Z,1.60
2023-03-27T20:21:43.618Z,1.40
2023-03-27T20:24:11.746Z,1.27
2023-03-27T20:26:40.483Z,1.20
2023-03-27T20:29:08.469Z,1.63
2023-03-27T20:31:36.398Z,1.10
2023-03-27T20:34:04.212Z,1.20
2023-03-27T20:36:34.918Z,1.20
2023-03-27T20:39:06.313Z,1.10
2023-03-27T20:41:34.304Z,1.10
2023-03-27T20:44:02.800Z,1.03
2023-03-27T20:46:30.627Z,1.10
2023-03-27T20:48:58.253Z,0.80
2023-03-27T20:51:25.866Z,1.00
2023-03-27T20:53:58.320Z,0.80
2023-03-27T20:56:26.215Z,1.20
2023-03-27T20:58:53.748Z,2.00
2023-03-27T21:01:27.404Z,1.00
2023-03-27T21:03:58.575Z,1.13
2023-03-27T21:06:26.182Z,1.00
2023-03-27T21:08:54.916Z,1.17
2023-03-27T21:11:22.278Z,1.00
2023-03-27T21:13:50.484Z,0.80
2023-03-27T21:16:18.164Z,1.60
2023-03-27T21:18:45.810Z,0.90
2023-03-27T21:21:13.215Z,1.23
2023-03-27T21:23:40.658Z,1.10
2023-03-27T21:26:09.527Z,1.00
2023-03-27T21:28:36.923Z,1.00
2023-03-27T21:31:07.056Z,1.00
2023-03-27T21:33:34.450Z,1.10
2023-03-27T21:36:02.393Z,1.27
2023-03-27T21:38:30.354Z,1.20
2023-03-27T21:40:57.719Z,1.47
2023-03-27T21:43:26.614Z,1.30
2023-03-27T21:45:54.019Z,1.37
2023-03-27T21:48:21.528Z,1.27
2023-03-27T21:50:48.989Z,1.53
2023-03-27T21:53:16.905Z,1.53
2023-03-27T21:55:46.274Z,1.47
2023-03-27T21:58:13.807Z,1.10
2023-03-27T22:00:45.276Z,1.40
2023-03-27T22:03:12.665Z,1.30
2023-03-27T22:05:40.520Z,1.10
2023-03-27T22:08:07.918Z,1.00
2023-03-27T22:10:35.759Z,1.40
2023-03-27T22:13:03.294Z,1.40
2023-03-27T22:15:31.096Z,1.63
2023-03-27T22:17:59.948Z,1.40
2023-03-27T22:20:27.539Z,1.47
2023-03-27T22:22:54.997Z,1.47
2023-03-27T22:25:22.340Z,1.10
2023-03-27T22:27:50.511Z,1.80
2023-03-27T22:30:18.033Z,1.27
2023-03-27T22:32:45.507Z,1.50
2023-03-27T22:35:14.355Z,1.23
2023-03-27T22:37:41.817Z,1.40
2023-03-27T22:40:09.665Z,1.50
2023-03-27T22:42:37.505Z,1.17
2023-03-27T22:45:05.053Z,1.73
2023-03-27T22:47:32.589Z,1.50
2023-03-27T22:50:00.210Z,1.43
2023-03-27T22:52:29.007Z,1.30
2023-03-27T22:54:56.388Z,2.30
2023-03-27T22:57:23.751Z,1.60
2023-03-27T22:59:51.808Z,1.53
2023-03-27T23:02:19.208Z,1.40
2023-03-27T23:04:46.552Z,1.30
2023-03-27T23:07:13.915Z,1.77
2023-03-27T23:09:42.764Z,1.27
2023-03-27T23:12:10.156Z,1.40
2023-03-27T23:14:37.539Z,1.33
2023-03-27T23:17:04.932Z,1.13
2023-03-27T23:19:32.419Z,1.23
2023-03-27T23:21:59.783Z,1.33
2023-03-27T23:24:27.150Z,1.70
2023-03-27T23:26:55.839Z,2.03
2023-03-27T23:29:23.192Z,1.03
2023-03-27T23:31:50.747Z,1.23
2023-03-27T23:34:18.149Z,1.40
2023-03-27T23:36:45.808Z,1.70
2023-03-27T23:39:13.179Z,1.43
2023-03-27T23:41:40.542Z,1.40
2023-03-27T23:44:09.241Z,1.53
2023-03-27T23:46:36.818Z,1.57
2023-03-27T23:49:04.306Z,1.20
2023-03-27T23:51:31.705Z,1.80
2023-03-27T23:53:59.060Z,1.40
2023-03-27T23:56:26.557Z,1.37
2023-03-27T23:58:53.963Z,1.47
